createdAt,value
2019-03-18T00:00:15.225Z,1.87
2019-03-18T00:02:43.872Z,1.33
2019-03-18T00:05:12.161Z,1.73
2019-03-18T00:07:40.788Z,1.70
2019-03-18T00:10:09.135Z,1.90
2019-03-18T00:12:37.425Z,1.80
2019-03-18T00:15:08.041Z,1.80
2019-03-18T00:17:36.329Z,1.80
2019-03-18T00:20:06.545Z,1.87
2019-03-18T00:22:34.838Z,1.93
2019-03-18T00:25:04.085Z,1.30
2019-03-18T00:27:32.356Z,1.67
2019-03-18T00:30:00.648Z,1.73
2019-03-18T00:32:28.930Z,1.63
2019-03-18T00:34:57.229Z,1.83
2019-03-18T00:37:25.506Z,1.60
2019-03-18T00:39:54.167Z,1.90
2019-03-18T00:42:22.448Z,2.20
2019-03-18T00:44:51.059Z,1.73
2019-03-18T00:47:19.332Z,2.07
2019-03-18T00:49:47.994Z,1.87
2019-03-18T00:52:16.336Z,1.83
2019-03-18T00:54:44.609Z,1.70
2019-03-18T00:57:13.238Z,2.23
2019-03-18T00:59:41.516Z,1.93
2019-03-18T01:02:10.081Z,2.27
2019-03-18T01:04:38.358Z,2.30
2019-03-18T01:07:06.646Z,2.07
2019-03-18T01:09:35.239Z,1.70
2019-03-18T01:12:03.805Z,2.00
2019-03-18T01:14:32.081Z,2.17
2019-03-18T01:17:00.378Z,2.13
2019-03-18T01:19:28.652Z,2.03
2019-03-18T01:21:57.221Z,2.40
2019-03-18T01:24:25.513Z,2.07
2019-03-18T01:26:53.806Z,2.33
2019-03-18T01:29:22.078Z,2.40
2019-03-18T01:31:50.360Z,2.40
2019-03-18T01:34:18.643Z,2.20
2019-03-18T01:36:46.921Z,2.50
2019-03-18T01:39:15.223Z,2.40
2019-03-18T01:41:43.494Z,2.13
2019-03-18T01:44:11.789Z,2.23
2019-03-18T01:46:40.062Z,2.13
2019-03-18T01:49:08.357Z,2.70
2019-03-18T01:51:36.639Z,2.30
2019-03-18T01:54:05.218Z,2.70
2019-03-18T01:56:33.488Z,2.50
2019-03-18T01:59:02.085Z,2.60
2019-03-18T02:01:30.667Z,2.53
2019-03-18T02:03:59.258Z,2.50
2019-03-18T02:06:27.549Z,2.50
2019-03-18T02:08:56.214Z,2.50
2019-03-18T02:11:24.504Z,2.27
2019-03-18T02:13:53.035Z,2.53
2019-03-18T02:16:21.658Z,2.37
2019-03-18T02:18:49.940Z,2.20
2019-03-18T02:21:18.227Z,2.40
2019-03-18T02:23:46.501Z,2.70
2019-03-18T02:26:14.802Z,2.93
2019-03-18T02:28:43.088Z,2.37
2019-03-18T02:31:11.463Z,2.23
2019-03-18T02:33:39.846Z,2.67
2019-03-18T02:36:08.130Z,2.50
2019-03-18T02:38:36.402Z,2.40
2019-03-18T02:41:04.689Z,2.90
2019-03-18T02:43:32.979Z,2.03
2019-03-18T02:46:10.220Z,2.37
2019-03-18T02:48:31.285Z,2.60
2019-03-18T02:50:59.553Z,2.10
2019-03-18T02:53:28.171Z,2.70
2019-03-18T02:55:56.443Z,2.53
2019-03-18T02:58:24.732Z,2.20
2019-03-18T03:00:52.998Z,2.40
2019-03-18T03:03:21.291Z,2.77
2019-03-18T03:05:49.863Z,2.40
2019-03-18T03:08:18.554Z,2.60
2019-03-18T03:10:46.851Z,2.37
2019-03-18T03:13:15.122Z,2.20
2019-03-18T03:15:43.679Z,1.93
2019-03-18T03:18:11.982Z,2.27
2019-03-18T03:20:40.260Z,1.73
2019-03-18T03:23:08.533Z,2.50
2019-03-18T03:25:36.832Z,2.20
2019-03-18T03:28:05.114Z,2.50
2019-03-18T03:30:33.399Z,2.43
2019-03-18T03:33:01.682Z,2.30
2019-03-18T03:35:30.009Z,2.47
2019-03-18T03:37:58.245Z,2.10
2019-03-18T03:40:26.533Z,2.50
2019-03-18T03:42:55.067Z,2.40
2019-03-18T03:45:23.356Z,2.80
2019-03-18T03:47:51.646Z,2.60
2019-03-18T03:50:20.008Z,2.33
2019-03-18T03:52:48.289Z,2.50
2019-03-18T03:55:16.565Z,2.20
2019-03-18T03:57:44.914Z,2.30
2019-03-18T04:00:14.811Z,2.30
2019-03-18T04:02:43.183Z,2.03
2019-03-18T04:05:11.622Z,2.20
2019-03-18T04:07:40.255Z,2.50
2019-03-18T04:10:10.672Z,2.67
2019-03-18T04:12:38.961Z,2.40
2019-03-18T04:15:09.676Z,2.30
2019-03-18T04:17:37.973Z,2.60
2019-03-18T04:20:09.625Z,2.70
2019-03-18T04:22:37.941Z,2.23
2019-03-18T04:25:07.340Z,2.40
2019-03-18T04:27:35.639Z,2.60
2019-03-18T04:30:06.110Z,3.53
2019-03-18T04:32:34.393Z,3.67
2019-03-18T04:35:02.956Z,3.70
2019-03-18T04:37:31.233Z,3.40
2019-03-18T04:39:59.529Z,3.60
2019-03-18T04:42:28.174Z,3.90
2019-03-18T04:44:56.777Z,3.93
2019-03-18T04:49:45.311Z,3.50
2019-03-18T04:52:13.935Z,3.77
2019-03-18T04:54:42.228Z,3.87
2019-03-18T04:57:10.504Z,3.43
2019-03-18T04:59:38.791Z,3.90
2019-03-18T05:02:07.066Z,3.47
2019-03-18T05:04:35.355Z,3.83
2019-03-18T05:07:03.895Z,3.70
2019-03-18T05:09:32.433Z,4.53
2019-03-18T05:12:00.983Z,4.80
2019-03-18T05:14:29.259Z,4.77
2019-03-18T05:16:57.537Z,6.00
2019-03-18T05:19:26.099Z,5.60
2019-03-18T05:21:54.386Z,4.87
2019-03-18T05:24:22.680Z,5.57
2019-03-18T05:26:50.963Z,5.37
2019-03-18T05:29:19.241Z,5.43
2019-03-18T05:31:47.527Z,5.30
2019-03-18T05:34:16.064Z,5.10
2019-03-18T05:36:44.353Z,4.77
2019-03-18T05:39:12.628Z,4.30
2019-03-18T05:41:40.932Z,4.23
2019-03-18T05:44:10.162Z,4.20
2019-03-18T05:46:38.430Z,4.50
2019-03-18T05:49:06.733Z,4.20
2019-03-18T05:51:34.999Z,4.70
2019-03-18T05:54:03.290Z,4.57
2019-03-18T05:56:31.566Z,4.37
2019-03-18T05:59:00.163Z,5.80
2019-03-18T06:01:28.736Z,9.37
2019-03-18T06:03:57.044Z,7.07
2019-03-18T06:06:25.322Z,6.93
2019-03-18T06:08:53.623Z,6.23
2019-03-18T06:11:21.898Z,6.50
2019-03-18T06:13:50.194Z,6.23
2019-03-18T06:16:18.812Z,7.10
2019-03-18T06:18:47.112Z,6.63
2019-03-18T06:21:15.671Z,6.80
2019-03-18T06:23:43.956Z,6.67
2019-03-18T06:26:12.248Z,6.40
2019-03-18T06:28:40.534Z,6.47
2019-03-18T06:31:08.829Z,6.43
2019-03-18T06:33:37.102Z,6.13
2019-03-18T06:36:05.391Z,6.00
2019-03-18T06:38:33.679Z,6.40
2019-03-18T06:41:02.358Z,6.40
2019-03-18T06:43:30.618Z,6.20
2019-03-18T06:45:58.907Z,6.63
2019-03-18T06:48:27.531Z,6.60
2019-03-18T06:50:55.839Z,6.50
2019-03-18T06:53:24.128Z,6.13
2019-03-18T06:55:52.774Z,6.33
2019-03-18T06:58:21.068Z,6.47
2019-03-18T07:00:49.625Z,7.00
2019-03-18T07:03:17.930Z,6.10
2019-03-18T07:05:46.382Z,7.53
2019-03-18T07:08:14.777Z,6.60
2019-03-18T07:10:43.044Z,6.10
2019-03-18T07:13:11.338Z,6.83
2019-03-18T07:15:39.620Z,6.90
2019-03-18T07:18:17.628Z,6.87
2019-03-18T07:20:37.923Z,6.80
2019-03-18T07:23:06.213Z,7.63
2019-03-18T07:25:34.743Z,7.00
2019-03-18T07:28:03.032Z,7.07
2019-03-18T07:30:31.307Z,7.60
2019-03-18T07:32:59.631Z,8.27
2019-03-18T07:35:27.905Z,8.80
2019-03-18T07:37:56.191Z,8.60
2019-03-18T07:40:24.482Z,8.20
2019-03-18T07:42:52.755Z,8.27
2019-03-18T07:45:21.300Z,7.17
2019-03-18T07:47:49.586Z,7.80
2019-03-18T07:50:17.882Z,5.73
2019-03-18T07:52:46.160Z,5.70
2019-03-18T07:55:14.457Z,5.13
2019-03-18T07:57:42.735Z,5.93
2019-03-18T08:00:12.798Z,5.63
2019-03-18T08:02:41.353Z,5.63
2019-03-18T08:05:10.390Z,5.97
2019-03-18T08:07:38.659Z,5.83
2019-03-18T08:10:14.706Z,6.17
2019-03-18T08:12:43.009Z,5.47
2019-03-18T08:15:12.229Z,5.40
2019-03-18T08:17:40.746Z,5.43
2019-03-18T08:20:13.643Z,5.90
2019-03-18T08:22:41.940Z,6.07
2019-03-18T08:25:10.579Z,5.93
2019-03-18T08:27:39.176Z,5.53
2019-03-18T08:30:10.932Z,5.93
2019-03-18T08:32:39.236Z,5.50
2019-03-18T08:35:07.600Z,6.57
2019-03-18T08:37:36.168Z,5.17
2019-03-18T08:40:06.992Z,5.37
2019-03-18T08:42:35.291Z,5.40
2019-03-18T08:45:04.439Z,5.50
2019-03-18T08:47:32.754Z,5.60
2019-03-18T08:50:01.036Z,5.90
2019-03-18T08:52:29.329Z,5.10
2019-03-18T08:54:57.614Z,5.50
2019-03-18T08:57:25.907Z,5.30
2019-03-18T08:59:54.450Z,5.17
2019-03-18T09:02:22.766Z,5.00
2019-03-18T09:04:51.310Z,4.47
2019-03-18T09:07:19.907Z,4.77
2019-03-18T09:09:48.207Z,4.27
2019-03-18T09:12:16.763Z,4.63
2019-03-18T09:14:45.059Z,4.70
2019-03-18T09:17:13.335Z,4.40
2019-03-18T09:19:41.625Z,3.63
2019-03-18T09:22:09.905Z,3.83
2019-03-18T09:24:38.254Z,3.70
2019-03-18T09:27:06.569Z,3.27
2019-03-18T09:29:34.861Z,3.33
2019-03-18T09:32:03.159Z,4.00
2019-03-18T09:34:31.511Z,3.13
2019-03-18T09:37:00.130Z,3.73
2019-03-18T09:39:28.413Z,3.57
2019-03-18T09:41:56.704Z,3.33
2019-03-18T09:44:24.990Z,3.53
2019-03-18T09:46:53.301Z,3.37
2019-03-18T09:49:22.320Z,3.13
2019-03-18T09:51:50.701Z,3.73
2019-03-18T09:54:18.988Z,3.27
2019-03-18T09:56:47.528Z,3.30
2019-03-18T09:59:15.795Z,3.13
2019-03-18T10:01:44.593Z,2.90
2019-03-18T10:04:12.953Z,2.93
2019-03-18T10:06:41.255Z,2.50
2019-03-18T10:09:09.607Z,2.57
2019-03-18T10:11:38.255Z,2.50
2019-03-18T10:14:06.534Z,2.70
2019-03-18T10:16:35.137Z,3.50
2019-03-18T10:19:03.436Z,2.97
2019-03-18T10:21:31.719Z,2.70
2019-03-18T10:24:00.357Z,3.17
2019-03-18T10:26:28.938Z,2.67
2019-03-18T10:28:57.238Z,2.40
2019-03-18T10:31:25.517Z,3.10
2019-03-18T10:33:53.815Z,2.40
2019-03-18T10:36:22.098Z,2.70
2019-03-18T10:38:52.777Z,2.27
2019-03-18T10:41:20.391Z,2.67
2019-03-18T10:43:48.678Z,2.20
2019-03-18T10:46:16.964Z,2.83
2019-03-18T10:48:45.259Z,2.70
2019-03-18T10:51:13.858Z,2.43
2019-03-18T10:53:44.503Z,2.60
2019-03-18T10:56:12.171Z,2.30
2019-03-18T10:58:40.474Z,2.00
2019-03-18T11:01:08.757Z,2.40
2019-03-18T11:03:39.036Z,2.40
2019-03-18T11:06:07.707Z,2.00
2019-03-18T11:08:36.028Z,2.57
2019-03-18T11:11:04.456Z,2.63
2019-03-18T11:13:32.753Z,2.13
2019-03-18T11:16:01.102Z,2.33
2019-03-18T11:18:29.407Z,2.00
2019-03-18T11:20:57.683Z,2.00
2019-03-18T11:23:25.987Z,2.10
2019-03-18T11:25:54.270Z,2.30
2019-03-18T11:28:22.812Z,2.47
2019-03-18T11:30:51.116Z,2.10
2019-03-18T11:33:19.414Z,1.80
2019-03-18T11:35:47.704Z,2.63
2019-03-18T11:38:15.980Z,2.03
2019-03-18T11:40:44.606Z,2.33
2019-03-18T11:43:12.872Z,2.47
2019-03-18T11:45:41.461Z,2.37
2019-03-18T11:48:10.252Z,1.70
2019-03-18T11:50:41.372Z,2.10
2019-03-18T11:53:14.153Z,2.23
2019-03-18T11:55:39.379Z,2.40
2019-03-18T11:58:07.731Z,1.90
2019-03-18T12:00:36.026Z,1.40
2019-03-18T12:03:07.283Z,1.37
2019-03-18T12:05:35.658Z,1.40
2019-03-18T12:08:03.947Z,1.73
2019-03-18T12:10:32.305Z,1.40
2019-03-18T12:13:00.602Z,1.87
2019-03-18T12:15:28.895Z,2.50
2019-03-18T12:17:57.440Z,1.70
2019-03-18T12:20:27.479Z,1.77
2019-03-18T12:22:55.782Z,1.90
2019-03-18T12:25:24.124Z,2.23
2019-03-18T12:27:52.424Z,2.23
2019-03-18T12:30:21.992Z,2.80
2019-03-18T12:32:50.245Z,2.57
2019-03-18T12:35:18.520Z,2.80
2019-03-18T12:37:46.877Z,2.30
2019-03-18T12:40:16.309Z,2.57
2019-03-18T12:42:44.632Z,2.83
2019-03-18T12:45:20.788Z,3.10
2019-03-18T12:47:49.256Z,2.53
2019-03-18T12:50:19.002Z,3.20
2019-03-18T12:52:49.058Z,2.93
2019-03-18T12:55:17.408Z,2.50
2019-03-18T12:57:46.055Z,2.93
2019-03-18T13:00:32.643Z,2.60
2019-03-18T13:03:01.028Z,2.90
2019-03-18T13:05:29.632Z,2.70
2019-03-18T13:07:57.991Z,2.43
2019-03-18T13:10:26.271Z,2.47
2019-03-18T13:12:54.567Z,2.33
2019-03-18T13:15:22.929Z,1.83
2019-03-18T13:17:51.216Z,1.87
2019-03-18T13:20:21.324Z,2.10
2019-03-18T13:22:49.670Z,1.80
2019-03-18T13:25:17.971Z,2.17
2019-03-18T13:27:46.256Z,2.07
2019-03-18T13:30:16.864Z,1.93
2019-03-18T13:32:45.206Z,1.93
2019-03-18T13:35:14.907Z,2.03
2019-03-18T13:37:43.178Z,1.90
2019-03-18T13:40:17.983Z,2.40
2019-03-18T13:42:46.575Z,2.17
2019-03-18T13:45:20.059Z,1.90
2019-03-18T13:47:48.343Z,2.33
2019-03-18T13:50:17.882Z,2.70
2019-03-18T13:52:46.229Z,2.30
2019-03-18T13:55:14.718Z,2.20
2019-03-18T13:57:43.071Z,1.90
2019-03-18T14:00:19.765Z,2.50
2019-03-18T14:02:48.056Z,2.23
2019-03-18T14:05:16.766Z,2.00
2019-03-18T14:07:45.137Z,2.07
2019-03-18T14:10:15.131Z,2.20
2019-03-18T14:12:43.430Z,2.20
2019-03-18T14:15:19.800Z,1.60
2019-03-18T14:17:48.100Z,1.67
2019-03-18T14:20:18.983Z,1.40
2019-03-18T14:22:47.351Z,1.53
2019-03-18T14:25:15.697Z,1.70
2019-03-18T14:27:43.990Z,1.60
2019-03-18T14:30:21.852Z,1.57
2019-03-18T14:32:50.193Z,2.30
2019-03-18T14:35:21.406Z,1.57
2019-03-18T14:37:48.609Z,2.37
2019-03-18T14:40:21.570Z,1.97
2019-03-18T14:42:49.863Z,2.40
2019-03-18T14:45:20.253Z,1.90
2019-03-18T14:47:48.554Z,1.70
2019-03-18T14:50:17.871Z,2.43
2019-03-18T14:52:46.173Z,2.00
2019-03-18T14:55:15.499Z,2.30
2019-03-18T14:57:44.129Z,2.70
2019-03-18T15:00:23.346Z,2.67
2019-03-18T15:02:51.930Z,2.40
2019-03-18T15:05:20.272Z,2.73
2019-03-18T15:07:48.613Z,2.73
2019-03-18T15:10:18.459Z,2.33
2019-03-18T15:12:46.765Z,2.77
2019-03-18T15:15:16.481Z,2.83
2019-03-18T15:17:45.085Z,2.90
2019-03-18T15:20:14.919Z,2.27
2019-03-18T15:22:43.486Z,2.30
2019-03-18T15:25:14.308Z,2.40
2019-03-18T15:27:42.605Z,2.43
2019-03-18T15:30:16.369Z,1.80
2019-03-18T15:32:44.637Z,2.80
2019-03-18T15:35:13.487Z,2.20
2019-03-18T15:37:41.789Z,2.57
2019-03-18T15:40:16.154Z,2.10
2019-03-18T15:42:44.529Z,2.50
2019-03-18T15:45:15.512Z,2.27
2019-03-18T15:47:44.067Z,2.40
2019-03-18T15:50:15.259Z,2.13
2019-03-18T15:52:43.534Z,1.97
2019-03-18T15:55:12.573Z,1.90
2019-03-18T15:57:40.873Z,2.37
2019-03-18T16:00:19.898Z,2.27
2019-03-18T16:02:48.284Z,2.00
2019-03-18T16:05:16.824Z,2.40
2019-03-18T16:07:45.165Z,2.47
2019-03-18T16:10:15.370Z,2.20
2019-03-18T16:12:43.825Z,2.03
2019-03-18T16:15:18.491Z,2.10
2019-03-18T16:17:46.800Z,2.33
2019-03-18T16:20:25.327Z,2.27
2019-03-18T16:22:53.717Z,1.97
2019-03-18T16:25:22.303Z,2.40
2019-03-18T16:27:50.586Z,2.23
2019-03-18T16:30:21.129Z,1.90
2019-03-18T16:32:49.465Z,2.60
2019-03-18T16:35:18.286Z,2.33
2019-03-18T16:37:46.659Z,2.20
2019-03-18T16:40:22.942Z,2.33
2019-03-18T16:42:51.245Z,2.53
2019-03-18T16:45:20.170Z,2.40
2019-03-18T16:47:48.515Z,2.07
2019-03-18T16:50:28.230Z,2.13
2019-03-18T16:52:56.507Z,2.50
2019-03-18T16:55:25.001Z,5.30
2019-03-18T16:57:53.385Z,2.33
2019-03-18T17:00:26.456Z,3.23
2019-03-18T17:02:54.735Z,2.20
2019-03-18T17:05:23.299Z,2.57
2019-03-18T17:07:54.059Z,2.20
2019-03-18T17:10:21.673Z,2.20
2019-03-18T17:12:49.976Z,2.23
2019-03-18T17:15:20.169Z,2.60
2019-03-18T17:17:48.456Z,2.10
2019-03-18T17:20:17.477Z,2.33
2019-03-18T17:22:49.474Z,2.10
2019-03-18T17:25:24.416Z,2.90
2019-03-18T17:27:52.708Z,2.53
2019-03-18T17:30:21.641Z,3.30
2019-03-18T17:32:49.924Z,2.60
2019-03-18T17:35:24.200Z,2.37
2019-03-18T17:37:52.468Z,2.73
2019-03-18T17:40:21.808Z,3.37
2019-03-18T17:42:50.101Z,3.10
2019-03-18T17:45:18.835Z,2.70
2019-03-18T17:47:47.114Z,3.00
2019-03-18T17:50:17.852Z,3.07
2019-03-18T17:52:46.133Z,3.17
2019-03-18T17:55:14.513Z,2.67
2019-03-18T17:57:42.793Z,2.50
2019-03-18T18:00:17.240Z,2.73
2019-03-18T18:02:45.537Z,2.23
2019-03-18T18:05:13.889Z,3.10
2019-03-18T18:07:42.474Z,2.70
2019-03-18T18:10:13.574Z,16.67
2019-03-18T18:12:41.885Z,2.30
2019-03-18T18:15:11.865Z,2.63
2019-03-18T18:17:40.155Z,2.10
2019-03-18T18:20:15.640Z,2.40
2019-03-18T18:22:43.998Z,1.93
2019-03-18T18:25:13.419Z,2.17
2019-03-18T18:27:41.723Z,2.50
2019-03-18T18:30:13.443Z,2.30
2019-03-18T18:32:42.022Z,1.90
2019-03-18T18:35:11.243Z,2.63
2019-03-18T18:37:39.792Z,2.87
2019-03-18T18:40:13.923Z,3.10
2019-03-18T18:42:42.221Z,3.30
2019-03-18T18:45:12.409Z,2.97
2019-03-18T18:47:41.058Z,2.73
2019-03-18T18:50:11.744Z,2.83
2019-03-18T18:52:40.023Z,2.57
2019-03-18T18:55:10.209Z,2.90
2019-03-18T18:57:38.486Z,2.93
2019-03-18T19:00:10.010Z,2.63
2019-03-18T19:02:38.289Z,2.10
2019-03-18T19:05:09.518Z,3.17
2019-03-18T19:07:38.090Z,3.13
2019-03-18T19:10:09.316Z,3.10
2019-03-18T19:12:37.815Z,2.80
2019-03-18T19:15:15.005Z,3.47
2019-03-18T19:17:43.275Z,3.00
2019-03-18T19:20:13.313Z,3.03
2019-03-18T19:22:41.671Z,4.67
2019-03-18T19:25:13.227Z,7.87
2019-03-18T19:27:41.510Z,12.93
2019-03-18T19:30:16.054Z,12.80
2019-03-18T19:32:44.341Z,10.40
2019-03-18T19:35:12.640Z,10.07
2019-03-18T19:37:41.252Z,7.13
2019-03-18T19:40:12.657Z,5.67
2019-03-18T19:42:40.944Z,6.40
2019-03-18T19:45:12.251Z,5.47
2019-03-18T19:47:40.544Z,5.70
2019-03-18T19:50:14.906Z,4.60
2019-03-18T19:52:43.712Z,3.70
2019-03-18T19:55:11.992Z,3.80
2019-03-18T19:57:40.284Z,4.73
2019-03-18T20:00:15.003Z,3.87
2019-03-18T20:02:43.371Z,3.43
2019-03-18T20:05:15.311Z,3.60
2019-03-18T20:07:42.167Z,3.50
2019-03-18T20:10:12.767Z,3.07
2019-03-18T20:12:41.056Z,3.33
2019-03-18T20:15:12.356Z,2.87
2019-03-18T20:17:40.724Z,3.43
2019-03-18T20:20:15.204Z,3.23
2019-03-18T20:22:43.506Z,3.40
2019-03-18T20:25:12.837Z,4.20
2019-03-18T20:27:41.456Z,3.03
2019-03-18T20:30:15.325Z,3.27
2019-03-18T20:32:43.692Z,3.53
2019-03-18T20:35:21.925Z,3.23
2019-03-18T20:37:51.855Z,3.40
2019-03-18T20:40:20.742Z,3.03
2019-03-18T20:42:49.111Z,4.10
2019-03-18T20:45:19.604Z,4.03
2019-03-18T20:47:47.883Z,3.30
2019-03-18T20:50:19.500Z,3.73
2019-03-18T20:52:47.793Z,4.17
2019-03-18T20:55:16.735Z,4.30
2019-03-18T20:57:45.046Z,4.93
2019-03-18T21:00:22.327Z,4.47
2019-03-18T21:02:50.668Z,4.37
2019-03-18T21:05:19.037Z,4.53
2019-03-18T21:07:47.486Z,4.37
2019-03-18T21:10:20.709Z,4.37
2019-03-18T21:12:49.056Z,5.40
2019-03-18T21:15:18.099Z,5.03
2019-03-18T21:17:46.457Z,5.20
2019-03-18T21:20:20.849Z,5.17
2019-03-18T21:22:49.139Z,5.53
2019-03-18T21:25:17.449Z,6.33
2019-03-18T21:27:45.734Z,9.53
2019-03-18T21:30:17.198Z,9.47
2019-03-18T21:32:45.474Z,9.90
2019-03-18T21:35:13.831Z,11.03
2019-03-18T21:37:42.401Z,9.93
2019-03-18T21:40:15.675Z,8.10
2019-03-18T21:42:43.971Z,11.93
2019-03-18T21:45:14.763Z,13.03
2019-03-18T21:47:43.124Z,10.00
2019-03-18T21:50:12.444Z,9.27
2019-03-18T21:52:40.741Z,8.77
2019-03-18T21:55:09.159Z,8.80
2019-03-18T21:57:37.810Z,8.00
2019-03-18T22:00:20.181Z,7.50
2019-03-18T22:02:48.548Z,6.50
2019-03-18T22:05:17.180Z,6.87
2019-03-18T22:07:45.493Z,8.47
2019-03-18T22:10:16.400Z,11.93
2019-03-18T22:12:44.687Z,15.70
2019-03-18T22:15:14.562Z,7.73
2019-03-18T22:17:43.267Z,13.00
2019-03-18T22:20:16.793Z,9.60
2019-03-18T22:22:45.088Z,9.93
2019-03-18T22:25:14.132Z,10.90
2019-03-18T22:27:42.396Z,8.80
2019-03-18T22:30:13.957Z,5.97
2019-03-18T22:32:42.279Z,5.97
2019-03-18T22:35:11.361Z,5.67
2019-03-18T22:37:39.941Z,5.73
2019-03-18T22:40:16.096Z,4.97
2019-03-18T22:42:44.372Z,5.33
2019-03-18T22:45:18.792Z,6.13
2019-03-18T22:47:47.075Z,5.30
2019-03-18T22:50:17.181Z,5.30
2019-03-18T22:52:45.767Z,5.43
2019-03-18T22:55:15.013Z,4.90
2019-03-18T22:57:43.280Z,4.97
2019-03-18T23:00:38.727Z,4.60
2019-03-18T23:03:07.077Z,4.50
2019-03-18T23:05:35.745Z,4.50
2019-03-18T23:08:04.489Z,4.83
2019-03-18T23:10:33.193Z,4.03
2019-03-18T23:13:01.562Z,5.43
2019-03-18T23:15:29.855Z,5.80
2019-03-18T23:17:58.431Z,5.30
2019-03-18T23:20:26.716Z,5.90
2019-03-18T23:22:55.009Z,4.83
2019-03-18T23:25:23.292Z,4.10
2019-03-18T23:27:51.845Z,4.73
2019-03-18T23:30:20.127Z,4.93
2019-03-18T23:32:49.202Z,5.40
2019-03-18T23:35:17.475Z,6.27
2019-03-18T23:37:45.764Z,4.63
2019-03-18T23:40:14.513Z,5.20
2019-03-18T23:42:42.815Z,5.53
2019-03-18T23:45:11.844Z,5.50
2019-03-18T23:47:40.141Z,6.07
2019-03-18T23:50:15.389Z,6.20
2019-03-18T23:52:43.664Z,6.93
2019-03-18T23:55:18.995Z,7.87
2019-03-18T23:57:42.035Z,7.97
